createdAt,value
2019-02-28T00:00:01.080Z,4.5
2019-02-28T00:05:05.739Z,4.2
2019-02-28T00:10:01.117Z,3.6
2019-02-28T00:15:01.210Z,3.5
2019-02-28T00:30:01.088Z,3.6
2019-02-28T00:35:01.215Z,3.7
2019-02-28T00:40:01.101Z,3.8
2019-02-28T00:45:02.130Z,3.7
2019-02-28T00:50:01.081Z,3.8
2019-02-28T00:55:01.213Z,3.7
2019-02-28T01:00:04.841Z,3.6
2019-02-28T01:10:04.212Z,3.5
2019-02-28T01:15:01.234Z,3.5
2019-02-28T01:25:01.216Z,3.6
2019-02-28T01:30:01.087Z,3.6
2019-02-28T01:40:04.311Z,3.5
2019-02-28T01:45:01.745Z,3.5
2019-02-28T01:50:01.101Z,3.6
2019-02-28T02:00:01.236Z,3.7
2019-02-28T02:05:01.158Z,3.8
2019-02-28T02:15:01.166Z,3.8
2019-02-28T02:25:02.838Z,3.7
2019-02-28T02:30:01.117Z,3.6
2019-02-28T02:35:05.787Z,3.5
2019-02-28T02:40:01.215Z,3.7
2019-02-28T02:45:04.748Z,3.7
2019-02-28T02:55:02.264Z,3.8
2019-02-28T03:00:01.112Z,3.8
2019-02-28T03:05:01.300Z,3.7
2019-02-28T03:15:01.259Z,3.7
2019-02-28T03:30:01.140Z,3.8
2019-02-28T03:35:01.247Z,3.7
2019-02-28T03:45:01.143Z,3.8
2019-02-28T04:00:01.151Z,3.9
2019-02-28T04:15:01.208Z,3.9
2019-02-28T04:25:01.267Z,3.8
2019-02-28T04:30:05.693Z,3.8
2019-02-28T04:35:01.256Z,3.7
2019-02-28T04:40:01.150Z,3.6
2019-02-28T04:45:01.211Z,3.5
2019-02-28T05:00:01.204Z,3.6
2019-02-28T05:05:01.237Z,3.7
2019-02-28T05:10:01.181Z,3.8
2019-02-28T05:15:02.419Z,3.7
2019-02-28T05:20:07.263Z,3.6
2019-02-28T05:25:01.281Z,3.5
2019-02-28T05:30:01.149Z,3.4
2019-02-28T05:35:01.385Z,3.2
2019-02-28T05:40:05.134Z,3.1
2019-02-28T05:45:01.147Z,3.0
2019-02-28T05:50:01.150Z,2.9
2019-02-28T06:06:01.285Z,2.8
2019-02-28T06:11:01.510Z,2.7
2019-02-28T06:16:01.277Z,2.6
2019-02-28T06:26:01.232Z,2.4
2019-02-28T06:41:01.217Z,2.4
2019-02-28T06:46:01.245Z,2.3
2019-02-28T06:56:01.199Z,2.2
2019-02-28T07:06:01.972Z,2.1
2019-02-28T07:11:01.133Z,2.0
2019-02-28T07:16:01.268Z,1.9
2019-02-28T07:21:01.110Z,1.8
2019-02-28T07:36:01.208Z,1.8
2019-02-28T07:41:01.110Z,1.7
2019-02-28T07:51:01.265Z,1.6
2019-02-28T07:56:03.726Z,1.5
2019-02-28T08:06:04.371Z,1.6
2019-02-28T08:21:01.208Z,1.7
2019-02-28T08:36:01.233Z,1.7
2019-02-28T08:46:02.789Z,1.6
2019-02-28T08:56:01.156Z,1.5
2019-02-28T09:01:01.155Z,1.4
2019-02-28T09:11:01.288Z,1.5
2019-02-28T09:16:06.266Z,1.6
2019-02-28T09:21:01.135Z,1.7
2019-02-28T09:26:01.215Z,1.9
2019-02-28T09:31:01.297Z,2.2
2019-02-28T09:36:02.299Z,2.4
2019-02-28T09:41:01.331Z,2.8
2019-02-28T09:46:01.264Z,3.1
2019-02-28T09:51:01.151Z,3.4
2019-02-28T09:56:01.311Z,3.9
2019-02-28T10:01:01.165Z,4.6
2019-02-28T10:06:01.288Z,5.7
2019-02-28T10:11:01.191Z,6.2
2019-02-28T10:16:01.232Z,7.0
2019-02-28T10:21:01.822Z,7.1
2019-02-28T10:26:01.213Z,7.4
2019-02-28T10:31:01.148Z,7.2
2019-02-28T10:36:01.276Z,7.6
2019-02-28T10:41:01.117Z,8.1
2019-02-28T10:46:01.286Z,8.6
2019-02-28T10:51:11.852Z,9.5
2019-02-28T10:56:01.216Z,9.3
2019-02-28T11:06:01.272Z,8.8
2019-02-28T11:11:01.158Z,8.5
2019-02-28T11:16:01.276Z,7.3
2019-02-28T11:21:01.135Z,7.0
2019-02-28T11:26:01.249Z,6.4
2019-02-28T11:31:01.138Z,6.2
2019-02-28T11:36:01.215Z,6.0
2019-02-28T11:41:01.107Z,5.9
2019-02-28T11:46:03.080Z,5.8
2019-02-28T11:51:01.140Z,6.1
2019-02-28T12:01:02.286Z,5.9
2019-02-28T12:06:01.314Z,6.0
2019-02-28T12:11:02.879Z,6.3
2019-02-28T12:21:01.709Z,6.2
2019-02-28T12:26:01.265Z,6.6
2019-02-28T12:31:01.174Z,6.7
2019-02-28T12:36:01.203Z,6.9
2019-02-28T12:41:01.110Z,7.2
2019-02-28T12:46:01.204Z,7.5
2019-02-28T12:56:01.138Z,7.3
2019-02-28T13:01:01.139Z,7.1
2019-02-28T13:06:01.269Z,6.6
2019-02-28T13:11:04.251Z,6.5
2019-02-28T13:16:01.241Z,6.3
2019-02-28T13:21:10.419Z,6.6
2019-02-28T13:26:01.205Z,6.7
2019-02-28T13:36:01.279Z,6.9
2019-02-28T13:41:01.151Z,7.5
2019-02-28T13:46:01.227Z,7.6
2019-02-28T13:51:02.384Z,7.5
2019-02-28T13:56:01.212Z,7.4
2019-02-28T14:01:01.147Z,7.9
2019-02-28T14:06:01.139Z,7.1
2019-02-28T14:11:01.111Z,6.6
2019-02-28T14:16:01.220Z,6.4
2019-02-28T14:21:02.898Z,6.2
2019-02-28T14:26:01.175Z,5.6
2019-02-28T14:31:01.175Z,5.8
2019-02-28T14:36:01.306Z,5.7
2019-02-28T14:41:01.177Z,5.1
2019-02-28T14:51:01.172Z,4.9
2019-02-28T14:56:01.148Z,4.4
2019-02-28T15:07:02.999Z,4.2
2019-02-28T15:12:01.178Z,4.3
2019-02-28T15:17:01.548Z,4.4
2019-02-28T15:22:01.177Z,4.2
2019-02-28T15:27:04.068Z,4.4
2019-02-28T15:32:06.155Z,4.8
2019-02-28T15:37:01.218Z,4.6
2019-02-28T15:47:01.154Z,4.8
2019-02-28T15:52:01.734Z,4.3
2019-02-28T15:57:01.267Z,4.0
2019-02-28T16:02:03.499Z,3.5
2019-02-28T16:07:01.201Z,3.0
2019-02-28T16:12:01.141Z,2.7
2019-02-28T16:17:03.435Z,2.9
2019-02-28T16:22:01.175Z,3.0
2019-02-28T16:27:01.236Z,3.3
2019-02-28T16:32:01.113Z,3.2
2019-02-28T16:37:01.919Z,3.1
2019-02-28T16:42:01.144Z,2.7
2019-02-28T16:47:01.191Z,2.5
2019-02-28T16:52:02.451Z,2.2
2019-02-28T16:57:01.216Z,2.1
2019-02-28T17:02:06.132Z,2.2
2019-02-28T17:07:02.619Z,2.3
2019-02-28T17:12:01.174Z,2.5
2019-02-28T17:17:01.253Z,2.6
2019-02-28T17:22:01.140Z,2.4
2019-02-28T17:27:02.306Z,2.5
2019-02-28T17:37:01.267Z,2.3
2019-02-28T17:42:08.235Z,2.1
2019-02-28T17:52:06.220Z,1.6
2019-02-28T17:57:01.215Z,1.3
2019-02-28T18:02:01.414Z,1.0
2019-02-28T18:20:00.971Z,0.4
2019-02-28T18:30:00.954Z,0.4
2019-02-28T18:45:01.066Z,0.3
2019-02-28T19:00:00.966Z,0.4
2019-02-28T19:05:00.957Z,0.3
2019-02-28T19:10:00.898Z,0.4
2019-02-28T19:15:00.918Z,0.4
2019-02-28T19:20:00.897Z,0.3
2019-02-28T19:30:00.987Z,0.3
2019-02-28T19:45:00.908Z,0.3
2019-02-28T20:00:01.089Z,0.3
2019-02-28T20:15:05.957Z,0.4
2019-02-28T20:30:02.132Z,0.5
2019-02-28T20:35:00.922Z,0.6
2019-02-28T20:40:00.931Z,0.7
2019-02-28T20:45:00.956Z,0.8
2019-02-28T20:50:00.928Z,0.9
2019-02-28T20:55:00.979Z,1.0
2019-02-28T21:00:00.927Z,1.0
2019-02-28T21:05:00.929Z,0.9
2019-02-28T21:15:01.511Z,0.8
2019-02-28T21:20:00.934Z,0.7
2019-02-28T21:25:00.999Z,0.9
2019-02-28T21:30:00.940Z,1.0
2019-02-28T21:35:01.063Z,1.1
2019-02-28T21:40:01.434Z,1.2
2019-02-28T21:45:01.066Z,1.3
2019-02-28T21:50:00.942Z,1.2
2019-02-28T22:00:02.042Z,1.2
2019-02-28T22:05:01.074Z,1.1
2019-02-28T22:10:00.967Z,1.2
2019-02-28T22:15:01.010Z,1.3
2019-02-28T22:20:00.987Z,1.2
2019-02-28T22:25:02.137Z,1.3
2019-02-28T22:30:00.944Z,1.3
2019-02-28T22:35:01.080Z,1.1
2019-02-28T22:40:00.956Z,1.0
2019-02-28T22:45:01.027Z,1.0
2019-02-28T22:55:03.011Z,1.1
2019-02-28T23:00:00.964Z,1.2
2019-02-28T23:05:01.117Z,1.3
2019-02-28T23:10:00.988Z,1.4
2019-02-28T23:15:01.098Z,1.5
2019-02-28T23:30:01.037Z,1.5
2019-02-28T23:50:00.520Z,2.0
2019-02-28T23:55:00.521Z,1.7
